sensor_id;sensor_type;location;lat;lon;timestamp;pressure;altitude;pressure_sealevel;temperature;humidity
79577;BME280;69045;48.136;11.386;2023-08-21T00:00:52;95829.91;;;25.50;55.11
79577;BME280;69045;48.136;11.386;2023-08-21T00:03:21;95827.53;;;25.63;54.38
79577;BME280;69045;48.136;11.386;2023-08-21T00:05:49;95832.97;;;25.71;54.36
79577;BME280;69045;48.136;11.386;2023-08-21T00:08:18;95831.91;;;25.72;53.84
79577;BME280;69045;48.136;11.386;2023-08-21T00:10:46;95830.53;;;25.75;53.97
79577;BME280;69045;48.136;11.386;2023-08-21T00:13:14;95828.94;;;25.74;53.80
79577;BME280;69045;48.136;11.386;2023-08-21T00:15:42;95825.66;;;25.77;53.83
79577;BME280;69045;48.136;11.386;2023-08-21T00:18:10;95833.50;;;25.73;53.70
79577;BME280;69045;48.136;11.386;2023-08-21T00:20:40;95826.34;;;25.69;53.70
79577;BME280;69045;48.136;11.386;2023-08-21T00:23:09;95826.53;;;25.58;53.56
79577;BME280;69045;48.136;11.386;2023-08-21T00:25:37;95831.41;;;25.56;54.15
79577;BME280;69045;48.136;11.386;2023-08-21T00:28:06;95822.97;;;25.49;54.04
79577;BME280;69045;48.136;11.386;2023-08-21T00:30:34;95822.97;;;25.49;54.09
79577;BME280;69045;48.136;11.386;2023-08-21T00:33:02;95824.84;;;25.63;53.40
79577;BME280;69045;48.136;11.386;2023-08-21T00:35:30;95828.03;;;25.78;53.16
79577;BME280;69045;48.136;11.386;2023-08-21T00:37:59;95827.53;;;25.90;52.44
79577;BME280;69045;48.136;11.386;2023-08-21T00:40:27;95832.66;;;26.00;52.52
79577;BME280;69045;48.136;11.386;2023-08-21T00:42:55;95822.13;;;26.04;52.06
79577;BME280;69045;48.136;11.386;2023-08-21T00:45:24;95825.72;;;25.99;52.81
79577;BME280;69045;48.136;11.386;2023-08-21T00:47:52;95819.88;;;25.83;53.17
79577;BME280;69045;48.136;11.386;2023-08-21T00:50:20;95822.06;;;25.68;53.21
79577;BME280;69045;48.136;11.386;2023-08-21T00:52:50;95818.88;;;25.52;53.79
79577;BME280;69045;48.136;11.386;2023-08-21T00:55:19;95822.09;;;25.54;54.27
79577;BME280;69045;48.136;11.386;2023-08-21T00:57:48;95822.56;;;25.70;53.64
79577;BME280;69045;48.136;11.386;2023-08-21T01:00:16;95824.56;;;25.78;53.74
79577;BME280;69045;48.136;11.386;2023-08-21T01:02:44;95822.97;;;25.77;53.45
79577;BME280;69045;48.136;11.386;2023-08-21T01:05:12;95821.06;;;25.64;54.58
79577;BME280;69045;48.136;11.386;2023-08-21T01:07:50;95816.81;;;25.35;54.42
79577;BME280;69045;48.136;11.386;2023-08-21T01:10:29;95811.44;;;24.75;56.73
79577;BME280;69045;48.136;11.386;2023-08-21T01:13:09;95812.56;;;24.17;58.42
79577;BME280;69045;48.136;11.386;2023-08-21T01:15:39;95807.72;;;23.82;59.57
79577;BME280;69045;48.136;11.386;2023-08-21T01:18:08;95804.47;;;23.85;59.49
79577;BME280;69045;48.136;11.386;2023-08-21T01:20:38;95805.50;;;24.08;58.75
79577;BME280;69045;48.136;11.386;2023-08-21T01:23:09;95809.97;;;24.12;58.69
79577;BME280;69045;48.136;11.386;2023-08-21T01:25:38;95811.63;;;24.27;58.25
79577;BME280;69045;48.136;11.386;2023-08-21T01:28:06;95810.75;;;24.50;57.49
79577;BME280;69045;48.136;11.386;2023-08-21T01:30:35;95811.50;;;24.70;56.73
79577;BME280;69045;48.136;11.386;2023-08-21T01:33:06;95815.72;;;24.90;56.52
79577;BME280;69045;48.136;11.386;2023-08-21T01:35:38;95817.72;;;24.98;56.22
79577;BME280;69045;48.136;11.386;2023-08-21T01:38:07;95815.25;;;25.01;56.15
79577;BME280;69045;48.136;11.386;2023-08-21T01:40:35;95823.66;;;25.14;55.33
79577;BME280;69045;48.136;11.386;2023-08-21T01:43:04;95819.66;;;25.25;55.03
79577;BME280;69045;48.136;11.386;2023-08-21T01:45:32;95822.16;;;25.35;55.21
79577;BME280;69045;48.136;11.386;2023-08-21T01:48:00;95823.06;;;25.44;55.04
79577;BME280;69045;48.136;11.386;2023-08-21T01:50:29;95823.16;;;25.53;54.38
79577;BME280;69045;48.136;11.386;2023-08-21T01:52:57;95821.69;;;25.61;54.68
79577;BME280;69045;48.136;11.386;2023-08-21T01:55:27;95817.59;;;25.63;54.23
79577;BME280;69045;48.136;11.386;2023-08-21T01:57:55;95814.81;;;25.54;54.38
79577;BME280;69045;48.136;11.386;2023-08-21T02:00:24;95812.41;;;25.39;55.24
79577;BME280;69045;48.136;11.386;2023-08-21T02:02:52;95817.19;;;25.28;55.25
79577;BME280;69045;48.136;11.386;2023-08-21T02:05:20;95815.78;;;25.17;55.64
79577;BME280;69045;48.136;11.386;2023-08-21T02:07:48;95822.34;;;25.11;56.10
79577;BME280;69045;48.136;11.386;2023-08-21T02:10:16;95816.19;;;25.24;55.58
79577;BME280;69045;48.136;11.386;2023-08-21T02:12:44;95817.59;;;25.36;55.31
79577;BME280;69045;48.136;11.386;2023-08-21T02:15:12;95820.59;;;25.48;55.35
79577;BME280;69045;48.136;11.386;2023-08-21T02:17:41;95823.28;;;25.48;55.18
79577;BME280;69045;48.136;11.386;2023-08-21T02:20:12;95825.44;;;25.46;54.98
79577;BME280;69045;48.136;11.386;2023-08-21T02:22:40;95825.16;;;25.47;54.85
79577;BME280;69045;48.136;11.386;2023-08-21T02:25:08;95820.97;;;25.55;55.14
79577;BME280;69045;48.136;11.386;2023-08-21T02:27:36;95817.78;;;25.53;55.16
79577;BME280;69045;48.136;11.386;2023-08-21T02:30:05;95824.94;;;25.44;55.30
79577;BME280;69045;48.136;11.386;2023-08-21T02:32:33;95818.38;;;25.22;55.98
79577;BME280;69045;48.136;11.386;2023-08-21T02:35:04;95816.00;;;25.21;56.09
79577;BME280;69045;48.136;11.386;2023-08-21T02:37:32;95816.00;;;25.21;55.65
79577;BME280;69045;48.136;11.386;2023-08-21T02:40:00;95808.63;;;25.13;55.82
79577;BME280;69045;48.136;11.386;2023-08-21T02:42:29;95816.34;;;25.00;56.23
79577;BME280;69045;48.136;11.386;2023-08-21T02:44:57;95817.31;;;24.91;56.90
79577;BME280;69045;48.136;11.386;2023-08-21T02:47:25;95818.78;;;24.83;56.77
79577;BME280;69045;48.136;11.386;2023-08-21T02:49:56;95813.34;;;24.88;57.03
79577;BME280;69045;48.136;11.386;2023-08-21T02:52:25;95817.41;;;24.86;56.89
79577;BME280;69045;48.136;11.386;2023-08-21T02:54:53;95828.25;;;24.94;56.76
79577;BME280;69045;48.136;11.386;2023-08-21T02:57:23;95827.56;;;25.02;56.59
79577;BME280;69045;48.136;11.386;2023-08-21T02:59:51;95830.38;;;25.11;56.21
79577;BME280;69045;48.136;11.386;2023-08-21T03:02:20;95826.59;;;25.12;56.41
79577;BME280;69045;48.136;11.386;2023-08-21T03:04:48;95827.41;;;25.13;55.97
79577;BME280;69045;48.136;11.386;2023-08-21T03:07:16;95825.44;;;25.18;56.11
79577;BME280;69045;48.136;11.386;2023-08-21T03:09:47;95826.19;;;25.05;56.41
79577;BME280;69045;48.136;11.386;2023-08-21T03:12:15;95831.31;;;24.88;57.33
79577;BME280;69045;48.136;11.386;2023-08-21T03:14:43;95834.38;;;24.81;57.43
79577;BME280;69045;48.136;11.386;2023-08-21T03:17:11;95826.50;;;24.71;57.68
79577;BME280;69045;48.136;11.386;2023-08-21T03:19:39;95827.25;;;24.58;57.68
79577;BME280;69045;48.136;11.386;2023-08-21T03:22:10;95832.44;;;24.68;57.65
79577;BME280;69045;48.136;11.386;2023-08-21T03:24:38;95835.38;;;24.85;57.50
79577;BME280;69045;48.136;11.386;2023-08-21T03:27:07;95832.59;;;24.90;57.01
79577;BME280;69045;48.136;11.386;2023-08-21T03:29:35;95831.63;;;24.86;56.90
79577;BME280;69045;48.136;11.386;2023-08-21T03:32:03;95839.28;;;24.93;56.92
79577;BME280;69045;48.136;11.386;2023-08-21T03:34:31;95836.50;;;24.98;56.90
79577;BME280;69045;48.136;11.386;2023-08-21T03:37:01;95842.22;;;24.91;57.13
79577;BME280;69045;48.136;11.386;2023-08-21T03:39:31;95846.22;;;24.94;56.68
79577;BME280;69045;48.136;11.386;2023-08-21T03:42:01;95843.31;;;24.90;57.27
79577;BME280;69045;48.136;11.386;2023-08-21T03:44:31;95843.09;;;24.73;57.73
79577;BME280;69045;48.136;11.386;2023-08-21T03:47:00;95843.84;;;24.60;57.95
79577;BME280;69045;48.136;11.386;2023-08-21T03:49:32;95844.00;;;24.49;57.84
79577;BME280;69045;48.136;11.386;2023-08-21T03:52:00;95846.38;;;24.32;58.23
79577;BME280;69045;48.136;11.386;2023-08-21T03:54:28;95848.47;;;24.16;58.81
79577;BME280;69045;48.136;11.386;2023-08-21T03:56:56;95850.78;;;24.04;58.82
79577;BME280;69045;48.136;11.386;2023-08-21T03:59:24;95856.28;;;23.94;59.38
79577;BME280;69045;48.136;11.386;2023-08-21T04:01:55;95850.78;;;23.85;59.67
79577;BME280;69045;48.136;11.386;2023-08-21T04:04:23;95847.84;;;23.82;59.92
79577;BME280;69045;48.136;11.386;2023-08-21T04:06:51;95838.59;;;23.74;60.07
79577;BME280;69045;48.136;11.386;2023-08-21T04:09:19;95847.81;;;23.63;60.58
79577;BME280;69045;48.136;11.386;2023-08-21T04:11:47;95847.13;;;23.52;61.00
79577;BME280;69045;48.136;11.386;2023-08-21T04:14:15;95849.81;;;23.52;61.05
79577;BME280;69045;48.136;11.386;2023-08-21T04:16:43;95847.47;;;23.46;61.16
79577;BME280;69045;48.136;11.386;2023-08-21T04:19:12;95850.19;;;23.40;61.45
79577;BME280;69045;48.136;11.386;2023-08-21T04:21:40;95852.69;;;23.32;62.01
79577;BME280;69045;48.136;11.386;2023-08-21T04:24:08;95855.28;;;23.13;63.17
79577;BME280;69045;48.136;11.386;2023-08-21T04:26:36;95854.13;;;22.95;63.99
79577;BME280;69045;48.136;11.386;2023-08-21T04:29:04;95853.56;;;22.98;63.76
79577;BME280;69045;48.136;11.386;2023-08-21T04:31:32;95857.84;;;22.99;63.64
79577;BME280;69045;48.136;11.386;2023-08-21T04:34:01;95852.25;;;22.96;64.20
79577;BME280;69045;48.136;11.386;2023-08-21T04:36:31;95854.38;;;22.99;64.27
79577;BME280;69045;48.136;11.386;2023-08-21T04:39:00;95860.47;;;23.04;63.76
79577;BME280;69045;48.136;11.386;2023-08-21T04:41:28;95863.34;;;23.08;63.41
79577;BME280;69045;48.136;11.386;2023-08-21T04:43:56;95859.44;;;23.00;64.12
79577;BME280;69045;48.136;11.386;2023-08-21T04:46:25;95863.47;;;22.98;64.03
79577;BME280;69045;48.136;11.386;2023-08-21T04:48:54;95863.19;;;22.99;64.45
79577;BME280;69045;48.136;11.386;2023-08-21T04:51:22;95868.47;;;23.04;63.89
79577;BME280;69045;48.136;11.386;2023-08-21T04:53:51;95858.25;;;23.11;63.88
79577;BME280;69045;48.136;11.386;2023-08-21T04:56:21;95867.03;;;23.17;64.09
79577;BME280;69045;48.136;11.386;2023-08-21T04:58:49;95863.72;;;23.25;63.86
79577;BME280;69045;48.136;11.386;2023-08-21T05:01:18;95864.19;;;23.32;63.55
79577;BME280;69045;48.136;11.386;2023-08-21T05:03:48;95868.41;;;23.38;62.87
79577;BME280;69045;48.136;11.386;2023-08-21T05:06:18;95869.06;;;23.49;62.62
79577;BME280;69045;48.136;11.386;2023-08-21T05:08:46;95871.09;;;23.62;62.36
79577;BME280;69045;48.136;11.386;2023-08-21T05:11:15;95871.16;;;23.81;61.94
79577;BME280;69045;48.136;11.386;2023-08-21T05:13:44;95877.38;;;23.95;61.38
79577;BME280;69045;48.136;11.386;2023-08-21T05:16:13;95871.13;;;24.05;60.59
79577;BME280;69045;48.136;11.386;2023-08-21T05:18:41;95880.59;;;24.16;60.27
79577;BME280;69045;48.136;11.386;2023-08-21T05:21:09;95877.56;;;24.23;60.31
79577;BME280;69045;48.136;11.386;2023-08-21T05:23:38;95880.66;;;24.30;59.94
79577;BME280;69045;48.136;11.386;2023-08-21T05:26:08;95890.13;;;24.46;59.66
79577;BME280;69045;48.136;11.386;2023-08-21T05:28:37;95877.59;;;24.61;59.33
79577;BME280;69045;48.136;11.386;2023-08-21T05:31:05;95876.75;;;24.79;59.24
79577;BME280;69045;48.136;11.386;2023-08-21T05:33:48;95875.34;;;25.00;58.22
79577;BME280;69045;48.136;11.386;2023-08-21T05:36:16;95878.34;;;25.13;58.17
79577;BME280;69045;48.136;11.386;2023-08-21T05:38:45;95888.53;;;25.29;57.57
79577;BME280;69045;48.136;11.386;2023-08-21T05:41:15;95882.00;;;25.49;57.16
79577;BME280;69045;48.136;11.386;2023-08-21T05:43:44;95880.13;;;25.64;57.24
79577;BME280;69045;48.136;11.386;2023-08-21T05:46:13;95883.63;;;25.78;57.12
79577;BME280;69045;48.136;11.386;2023-08-21T05:48:41;95881.22;;;25.90;56.28
79577;BME280;69045;48.136;11.386;2023-08-21T05:51:09;95884.91;;;26.08;56.30
79577;BME280;69045;48.136;11.386;2023-08-21T05:53:37;95880.78;;;26.24;56.09
79577;BME280;69045;48.136;11.386;2023-08-21T05:56:05;95888.22;;;26.41;55.17
79577;BME280;69045;48.136;11.386;2023-08-21T05:58:33;95886.56;;;26.54;54.75
79577;BME280;69045;48.136;11.386;2023-08-21T06:01:03;95890.53;;;26.70;54.28
79577;BME280;69045;48.136;11.386;2023-08-21T06:03:33;95892.22;;;26.88;53.95
79577;BME280;69045;48.136;11.386;2023-08-21T06:06:09;95890.16;;;27.08;53.61
79577;BME280;69045;48.136;11.386;2023-08-21T06:08:38;95888.84;;;27.28;52.63
79577;BME280;69045;48.136;11.386;2023-08-21T06:11:06;95894.47;;;27.48;52.87
79577;BME280;69045;48.136;11.386;2023-08-21T06:13:34;95893.03;;;27.73;52.18
79577;BME280;69045;48.136;11.386;2023-08-21T06:16:04;95894.06;;;27.95;51.41
79577;BME280;69045;48.136;11.386;2023-08-21T06:18:34;95897.41;;;28.18;50.88
79577;BME280;69045;48.136;11.386;2023-08-21T06:21:02;95897.16;;;28.37;50.05
79577;BME280;69045;48.136;11.386;2023-08-21T06:23:31;95897.97;;;28.54;49.46
79577;BME280;69045;48.136;11.386;2023-08-21T06:25:59;95902.09;;;28.69;48.77
79577;BME280;69045;48.136;11.386;2023-08-21T06:28:28;95910.50;;;28.85;48.69
79577;BME280;69045;48.136;11.386;2023-08-21T06:30:56;95907.03;;;29.02;48.30
79577;BME280;69045;48.136;11.386;2023-08-21T06:33:26;95908.72;;;29.24;48.03
79577;BME280;69045;48.136;11.386;2023-08-21T06:35:54;95911.69;;;29.48;47.45
79577;BME280;69045;48.136;11.386;2023-08-21T06:38:22;95902.41;;;29.67;47.79
79577;BME280;69045;48.136;11.386;2023-08-21T06:40:50;95906.47;;;29.90;46.68
79577;BME280;69045;48.136;11.386;2023-08-21T06:43:18;95900.00;;;30.12;46.38
79577;BME280;69045;48.136;11.386;2023-08-21T06:45:49;95908.63;;;30.35;46.05
79577;BME280;69045;48.136;11.386;2023-08-21T06:48:17;95913.13;;;30.52;45.74
79577;BME280;69045;48.136;11.386;2023-08-21T06:50:47;95913.34;;;30.67;44.80
79577;BME280;69045;48.136;11.386;2023-08-21T06:53:15;95912.28;;;30.81;44.29
79577;BME280;69045;48.136;11.386;2023-08-21T06:55:44;95908.50;;;30.94;43.72
79577;BME280;69045;48.136;11.386;2023-08-21T06:58:12;95913.28;;;31.09;43.72
79577;BME280;69045;48.136;11.386;2023-08-21T07:00:40;95914.72;;;31.28;43.82
79577;BME280;69045;48.136;11.386;2023-08-21T07:03:08;95918.06;;;31.45;43.17
79577;BME280;69045;48.136;11.386;2023-08-21T07:05:37;95920.56;;;31.63;43.07
79577;BME280;69045;48.136;11.386;2023-08-21T07:08:07;95919.13;;;31.77;42.87
79577;BME280;69045;48.136;11.386;2023-08-21T07:10:36;95915.41;;;31.94;42.70
79577;BME280;69045;48.136;11.386;2023-08-21T07:13:04;95920.63;;;32.12;41.79
79577;BME280;69045;48.136;11.386;2023-08-21T07:15:32;95921.16;;;32.29;41.55
79577;BME280;69045;48.136;11.386;2023-08-21T07:18:00;95925.13;;;32.44;41.83
79577;BME280;69045;48.136;11.386;2023-08-21T07:20:28;95924.44;;;32.59;41.10
79577;BME280;69045;48.136;11.386;2023-08-21T07:22:57;95928.44;;;32.78;40.08
79577;BME280;69045;48.136;11.386;2023-08-21T07:25:26;95923.09;;;32.94;40.67
79577;BME280;69045;48.136;11.386;2023-08-21T07:27:55;95925.50;;;33.11;40.25
79577;BME280;69045;48.136;11.386;2023-08-21T07:30:23;95920.44;;;33.25;40.04
79577;BME280;69045;48.136;11.386;2023-08-21T07:32:52;95920.06;;;33.39;39.58
79577;BME280;69045;48.136;11.386;2023-08-21T07:35:21;95923.19;;;33.69;38.15
79577;BME280;69045;48.136;11.386;2023-08-21T07:37:49;95930.91;;;33.83;37.84
79577;BME280;69045;48.136;11.386;2023-08-21T07:40:17;95920.66;;;33.60;37.72
79577;BME280;69045;48.136;11.386;2023-08-21T07:42:46;95921.16;;;33.82;37.89
79577;BME280;69045;48.136;11.386;2023-08-21T07:45:14;95913.19;;;33.89;37.73
79577;BME280;69045;48.136;11.386;2023-08-21T07:47:42;95924.84;;;34.05;37.96
79577;BME280;69045;48.136;11.386;2023-08-21T07:50:10;95921.00;;;34.22;36.96
79577;BME280;69045;48.136;11.386;2023-08-21T07:52:40;95921.66;;;34.35;36.89
79577;BME280;69045;48.136;11.386;2023-08-21T07:55:08;95922.59;;;34.58;36.28
79577;BME280;69045;48.136;11.386;2023-08-21T07:57:36;95929.38;;;34.68;35.72
79577;BME280;69045;48.136;11.386;2023-08-21T08:00:07;95922.91;;;35.11;36.62
79577;BME280;69045;48.136;11.386;2023-08-21T08:02:39;95925.91;;;35.25;35.96
79577;BME280;69045;48.136;11.386;2023-08-21T08:05:09;95924.88;;;35.34;36.12
79577;BME280;69045;48.136;11.386;2023-08-21T08:07:37;95925.19;;;35.48;35.04
79577;BME280;69045;48.136;11.386;2023-08-21T08:10:06;95924.63;;;35.62;34.94
79577;BME280;69045;48.136;11.386;2023-08-21T08:12:34;95928.72;;;35.71;34.21
79577;BME280;69045;48.136;11.386;2023-08-21T08:15:03;95929.38;;;35.88;34.46
79577;BME280;69045;48.136;11.386;2023-08-21T08:17:33;95926.06;;;35.98;34.06
79577;BME280;69045;48.136;11.386;2023-08-21T08:20:01;95929.72;;;36.09;34.00
79577;BME280;69045;48.136;11.386;2023-08-21T08:22:29;95925.16;;;36.40;33.00
79577;BME280;69045;48.136;11.386;2023-08-21T08:24:57;95923.88;;;36.90;32.82
79577;BME280;69045;48.136;11.386;2023-08-21T08:27:25;95930.91;;;36.91;32.01
79577;BME280;69045;48.136;11.386;2023-08-21T08:29:53;95917.69;;;37.27;32.31
79577;BME280;69045;48.136;11.386;2023-08-21T08:32:21;95923.22;;;37.71;31.61
79577;BME280;69045;48.136;11.386;2023-08-21T08:34:50;95929.91;;;37.77;30.39
79577;BME280;69045;48.136;11.386;2023-08-21T08:37:19;95928.28;;;37.69;31.54
79577;BME280;69045;48.136;11.386;2023-08-21T08:39:47;95927.50;;;37.68;30.68
79577;BME280;69045;48.136;11.386;2023-08-21T08:42:15;95923.00;;;37.87;30.04
79577;BME280;69045;48.136;11.386;2023-08-21T08:44:44;95923.84;;;37.94;29.85
79577;BME280;69045;48.136;11.386;2023-08-21T08:47:12;95923.84;;;37.94;28.64
79577;BME280;69045;48.136;11.386;2023-08-21T08:49:41;95933.34;;;38.08;29.95
79577;BME280;69045;48.136;11.386;2023-08-21T08:52:11;95930.31;;;38.23;28.40
79577;BME280;69045;48.136;11.386;2023-08-21T08:54:39;95925.38;;;38.43;29.60
79577;BME280;69045;48.136;11.386;2023-08-21T08:57:07;95929.13;;;38.76;29.12
79577;BME280;69045;48.136;11.386;2023-08-21T08:59:35;95932.22;;;38.71;29.22
79577;BME280;69045;48.136;11.386;2023-08-21T09:02:03;95929.38;;;38.60;29.27
79577;BME280;69045;48.136;11.386;2023-08-21T09:04:32;95932.91;;;38.61;28.90
79577;BME280;69045;48.136;11.386;2023-08-21T09:07:06;95932.94;;;38.68;29.43
79577;BME280;69045;48.136;11.386;2023-08-21T09:09:39;95926.88;;;39.03;29.29
79577;BME280;69045;48.136;11.386;2023-08-21T09:12:10;95930.81;;;39.09;29.08
79577;BME280;69045;48.136;11.386;2023-08-21T09:14:39;95926.09;;;39.02;29.39
79577;BME280;69045;48.136;11.386;2023-08-21T09:17:08;95935.84;;;38.96;29.12
79577;BME280;69045;48.136;11.386;2023-08-21T09:19:36;95932.66;;;38.87;29.09
79577;BME280;69045;48.136;11.386;2023-08-21T09:22:09;95927.13;;;38.73;29.44
79577;BME280;69045;48.136;11.386;2023-08-21T09:24:39;95929.78;;;38.62;29.51
79577;BME280;69045;48.136;11.386;2023-08-21T09:27:13;95923.56;;;38.69;29.37
79577;BME280;69045;48.136;11.386;2023-08-21T09:29:43;95924.50;;;38.98;28.95
79577;BME280;69045;48.136;11.386;2023-08-21T09:32:11;95930.16;;;39.51;28.54
79577;BME280;69045;48.136;11.386;2023-08-21T09:34:39;95938.44;;;39.80;28.29
79577;BME280;69045;48.136;11.386;2023-08-21T09:37:08;95927.78;;;39.46;29.17
79577;BME280;69045;48.136;11.386;2023-08-21T09:39:38;95929.72;;;39.42;29.36
79577;BME280;69045;48.136;11.386;2023-08-21T09:42:07;95937.53;;;39.19;29.62
79577;BME280;69045;48.136;11.386;2023-08-21T09:44:37;95927.22;;;38.94;29.42
79577;BME280;69045;48.136;11.386;2023-08-21T09:47:08;95924.09;;;38.99;30.13
79577;BME280;69045;48.136;11.386;2023-08-21T09:49:39;95918.22;;;38.90;30.32
79577;BME280;69045;48.136;11.386;2023-08-21T09:52:08;95917.78;;;38.85;29.53
79577;BME280;69045;48.136;11.386;2023-08-21T09:54:57;95915.22;;;39.31;30.58
79577;BME280;69045;48.136;11.386;2023-08-21T09:57:27;95919.44;;;39.14;30.78
79577;BME280;69045;48.136;11.386;2023-08-21T09:59:56;95914.25;;;38.88;30.79
79577;BME280;69045;48.136;11.386;2023-08-21T10:02:26;95907.25;;;38.94;31.42
79577;BME280;69045;48.136;11.386;2023-08-21T10:04:55;95904.13;;;38.99;31.00
79577;BME280;69045;48.136;11.386;2023-08-21T10:07:27;95906.84;;;38.92;31.74
79577;BME280;69045;48.136;11.386;2023-08-21T10:09:57;95906.44;;;38.83;29.74
79577;BME280;69045;48.136;11.386;2023-08-21T10:12:26;95907.28;;;39.08;28.69
79577;BME280;69045;48.136;11.386;2023-08-21T10:14:54;95905.44;;;39.41;28.54
79577;BME280;69045;48.136;11.386;2023-08-21T10:17:22;95901.56;;;39.52;29.29
79577;BME280;69045;48.136;11.386;2023-08-21T10:19:51;95901.19;;;39.65;28.50
79577;BME280;69045;48.136;11.386;2023-08-21T10:22:38;95899.22;;;39.83;29.15
79577;BME280;69045;48.136;11.386;2023-08-21T10:25:18;95900.00;;;39.58;28.96
79577;BME280;69045;48.136;11.386;2023-08-21T10:27:50;95892.47;;;39.16;29.35
79577;BME280;69045;48.136;11.386;2023-08-21T10:30:21;95891.66;;;39.12;29.74
79577;BME280;69045;48.136;11.386;2023-08-21T10:32:50;95894.91;;;39.50;28.92
79577;BME280;69045;48.136;11.386;2023-08-21T10:35:21;95893.38;;;39.92;27.19
79577;BME280;69045;48.136;11.386;2023-08-21T10:38:06;95894.50;;;40.33;27.12
79577;BME280;69045;48.136;11.386;2023-08-21T10:40:37;95900.34;;;40.60;27.36
79577;BME280;69045;48.136;11.386;2023-08-21T10:43:37;95887.00;;;40.66;27.50
79577;BME280;69045;48.136;11.386;2023-08-21T10:46:06;95893.22;;;40.77;26.42
79577;BME280;69045;48.136;11.386;2023-08-21T10:48:35;95889.94;;;41.11;26.84
79577;BME280;69045;48.136;11.386;2023-08-21T10:51:05;95891.47;;;41.23;26.46
79577;BME280;69045;48.136;11.386;2023-08-21T10:53:34;95889.44;;;41.37;27.27
79577;BME280;69045;48.136;11.386;2023-08-21T10:56:05;95895.13;;;40.98;27.84
79577;BME280;69045;48.136;11.386;2023-08-21T10:58:38;95902.72;;;40.44;27.52
79577;BME280;69045;48.136;11.386;2023-08-21T11:01:06;95902.34;;;40.53;26.63
79577;BME280;69045;48.136;11.386;2023-08-21T11:03:38;95893.22;;;40.77;27.07
79577;BME280;69045;48.136;11.386;2023-08-21T11:06:07;95900.00;;;40.51;27.78
79577;BME280;69045;48.136;11.386;2023-08-21T11:08:36;95896.50;;;40.26;27.76
79577;BME280;69045;48.136;11.386;2023-08-21T11:11:05;95904.34;;;39.99;28.22
79577;BME280;69045;48.136;11.386;2023-08-21T11:13:33;95902.38;;;39.85;28.34
79577;BME280;69045;48.136;11.386;2023-08-21T11:16:03;95898.84;;;39.74;27.93
79577;BME280;69045;48.136;11.386;2023-08-21T11:18:33;95903.56;;;40.09;26.32
79577;BME280;69045;48.136;11.386;2023-08-21T11:21:05;95897.69;;;40.25;26.95
79577;BME280;69045;48.136;11.386;2023-08-21T11:23:36;95901.56;;;40.24;27.42
79577;BME280;69045;48.136;11.386;2023-08-21T11:26:09;95899.63;;;39.99;28.44
79577;BME280;69045;48.136;11.386;2023-08-21T11:28:47;95905.47;;;39.55;28.09
79577;BME280;69045;48.136;11.386;2023-08-21T11:31:16;95896.81;;;39.35;28.88
79577;BME280;69045;48.136;11.386;2023-08-21T11:33:49;95896.00;;;39.27;28.71
79577;BME280;69045;48.136;11.386;2023-08-21T11:36:18;95891.31;;;39.28;27.81
79577;BME280;69045;48.136;11.386;2023-08-21T11:38:58;95894.81;;;39.21;27.58
79577;BME280;69045;48.136;11.386;2023-08-21T11:41:28;95885.81;;;39.21;27.51
79577;BME280;69045;48.136;11.386;2023-08-21T11:44:02;95890.94;;;39.40;27.63
79577;BME280;69045;48.136;11.386;2023-08-21T11:46:30;95895.31;;;39.59;27.64
79577;BME280;69045;48.136;11.386;2023-08-21T11:49:00;95886.66;;;39.50;27.70
79577;BME280;69045;48.136;11.386;2023-08-21T11:51:29;95886.25;;;39.37;28.03
79577;BME280;69045;48.136;11.386;2023-08-21T11:53:57;95878.38;;;39.25;27.58
79577;BME280;69045;48.136;11.386;2023-08-21T11:56:29;95873.72;;;39.36;27.50
79577;BME280;69045;48.136;11.386;2023-08-21T11:58:57;95874.09;;;39.38;28.05
79577;BME280;69045;48.136;11.386;2023-08-21T12:01:26;95875.66;;;39.39;28.08
79577;BME280;69045;48.136;11.386;2023-08-21T12:03:54;95876.06;;;39.38;27.85
79577;BME280;69045;48.136;11.386;2023-08-21T12:06:23;95865.88;;;39.31;28.26
79577;BME280;69045;48.136;11.386;2023-08-21T12:08:52;95872.09;;;39.17;28.20
79577;BME280;69045;48.136;11.386;2023-08-21T12:11:20;95872.00;;;38.92;28.13
79577;BME280;69045;48.136;11.386;2023-08-21T12:13:50;95866.47;;;38.82;27.95
79577;BME280;69045;48.136;11.386;2023-08-21T12:16:18;95871.94;;;38.74;27.97
79577;BME280;69045;48.136;11.386;2023-08-21T12:18:47;95861.81;;;38.93;27.67
79577;BME280;69045;48.136;11.386;2023-08-21T12:21:15;95866.84;;;38.73;28.15
79577;BME280;69045;48.136;11.386;2023-08-21T12:23:43;95869.06;;;38.53;28.04
79577;BME280;69045;48.136;11.386;2023-08-21T12:26:11;95871.41;;;38.51;28.38
79577;BME280;69045;48.136;11.386;2023-08-21T12:28:38;95863.19;;;38.51;28.62
79577;BME280;69045;48.136;11.386;2023-08-21T12:31:08;95856.56;;;38.59;27.98
79577;BME280;69045;48.136;11.386;2023-08-21T12:33:36;95857.78;;;38.65;27.92
79577;BME280;69045;48.136;11.386;2023-08-21T12:36:04;95851.97;;;38.81;27.46
79577;BME280;69045;48.136;11.386;2023-08-21T12:38:32;95855.63;;;39.10;27.33
79577;BME280;69045;48.136;11.386;2023-08-21T12:41:01;95851.72;;;39.29;27.61
79577;BME280;69045;48.136;11.386;2023-08-21T12:43:30;95849.31;;;39.06;28.03
79577;BME280;69045;48.136;11.386;2023-08-21T12:45:58;95845.75;;;38.84;28.11
79577;BME280;69045;48.136;11.386;2023-08-21T12:48:27;95843.69;;;38.67;28.60
79577;BME280;69045;48.136;11.386;2023-08-21T12:50:55;95848.72;;;38.50;28.50
79577;BME280;69045;48.136;11.386;2023-08-21T12:53:23;95848.28;;;38.41;28.43
79577;BME280;69045;48.136;11.386;2023-08-21T12:55:53;95846.63;;;38.26;28.87
79577;BME280;69045;48.136;11.386;2023-08-21T12:58:22;95835.97;;;38.10;28.69
79577;BME280;69045;48.136;11.386;2023-08-21T13:00:50;95835.91;;;38.03;28.16